Time;durP1;ratioP1;P1;durP2;ratioP2;P2;SDS_P1;SDS_P2;PMS_P1;PMS_P2;Temp;Humidity;BMP_temperature;BMP_pressure;BME280_temperature;BME280_humidity;BME280_pressure;Samples;Min_cycle;Max_cycle;Signal;HPM_P1;HPM_P2
2024/02/25 00:02:05;;;;;;;4.97;1.80;;;;;;;4.75;100.00;100934.13;5033140;28;20195;-71
2024/02/25 00:04:30;;;;;;;6.67;2.23;;;;;;;3.98;100.00;100850.84;5025849;28;20546;-71
2024/02/25 00:06:56;;;;;;;7.27;2.40;;;;;;;4.23;100.00;100911.06;5034305;28;20640;-70
2024/02/25 00:09:21;;;;;;;8.17;2.30;;;;;;;4.70;100.00;100968.31;5018553;28;20211;-71
2024/02/25 00:11:46;;;;;;;7.17;2.73;;;;;;;4.24;100.00;100927.84;5033150;28;20765;-71
2024/02/25 00:14:12;;;;;;;5.87;2.27;;;;;;;3.56;100.00;100754.22;5033173;28;22142;-71
2024/02/25 00:16:40;;;;;;;6.80;2.50;;;;;;;3.87;100.00;100820.06;5024365;28;20190;-71
2024/02/25 00:19:06;;;;;;;6.50;2.50;;;;;;;4.78;100.00;100946.28;5040705;28;20211;-70
2024/02/25 00:21:31;;;;;;;8.00;2.37;;;;;;;4.72;100.00;100945.91;5029389;28;20532;-71
2024/02/25 00:23:56;;;;;;;7.27;2.70;;;;;;;4.87;100.00;100926.72;5028356;28;20198;-70
2024/02/25 00:26:22;;;;;;;6.73;2.50;;;;;;;3.69;100.00;100729.91;5035042;28;20191;-70
2024/02/25 00:28:49;;;;;;;7.60;2.73;;;;;;;3.83;100.00;100786.88;5035491;28;20658;-70
2024/02/25 00:31:14;;;;;;;6.67;2.30;;;;;;;4.17;100.00;100863.91;5029824;28;20470;-70
2024/02/25 00:33:39;;;;;;;6.00;2.63;;;;;;;4.68;100.00;100895.88;5031626;28;20530;-70
2024/02/25 00:36:07;;;;;;;6.23;2.83;;;;;;;4.76;100.00;100952.56;5021385;28;20188;-70
2024/02/25 00:38:32;;;;;;;8.70;3.30;;;;;;;4.74;100.00;100940.41;5035686;28;20216;-70
2024/02/25 00:40:57;;;;;;;8.40;3.53;;;;;;;4.68;100.00;100933.91;5032656;28;21133;-70
2024/02/25 00:43:25;;;;;;;8.30;3.20;;;;;;;3.42;100.00;100730.91;5030417;28;20187;-71
2024/02/25 00:45:51;;;;;;;8.23;3.30;;;;;;;3.81;100.00;100744.59;5032280;28;20184;-70
2024/02/25 00:48:16;;;;;;;11.27;3.00;;;;;;;3.78;100.00;100754.69;5025013;28;20437;-70
2024/02/25 00:50:42;;;;;;;7.47;3.20;;;;;;;4.43;100.00;100855.09;5028025;28;20208;-70
2024/02/25 00:53:09;;;;;;;5.67;2.60;;;;;;;4.14;100.00;100784.59;5021769;28;20192;-70
2024/02/25 00:55:35;;;;;;;7.10;2.87;;;;;;;4.46;100.00;100831.72;5026833;28;20184;-70
2024/02/25 00:58:00;;;;;;;7.00;3.07;;;;;;;4.72;100.00;100852.91;5032501;28;20507;-70
2024/02/25 01:00:26;;;;;;;7.33;3.30;;;;;;;4.46;100.00;100817.59;5034268;28;20211;-70
2024/02/25 01:02:51;;;;;;;6.80;3.20;;;;;;;4.80;100.00;100845.94;5034731;28;20192;-70
2024/02/25 01:05:17;;;;;;;6.83;2.93;;;;;;;4.38;100.00;100828.19;5026470;28;20192;-70
2024/02/25 01:07:43;;;;;;;7.67;3.23;;;;;;;4.49;100.00;100841.19;5032241;28;20188;-70
2024/02/25 01:10:09;;;;;;;10.20;3.93;;;;;;;4.29;100.00;100816.69;5025488;28;20704;-70
2024/02/25 01:12:35;;;;;;;7.13;3.07;;;;;;;3.73;100.00;100680.88;5035058;28;20447;-70
2024/02/25 01:15:00;;;;;;;7.03;3.23;;;;;;;4.25;100.00;100773.69;5032470;28;20515;-70
2024/02/25 01:17:25;;;;;;;7.20;3.70;;;;;;;4.37;100.00;100750.34;5031939;28;20208;-70
2024/02/25 01:19:51;;;;;;;7.50;3.20;;;;;;;4.71;100.00;100792.75;5030601;28;20254;-70
2024/02/25 01:22:16;;;;;;;6.33;3.20;;;;;;;4.60;100.00;100802.84;5038736;28;20192;-70
2024/02/25 01:24:42;;;;;;;7.30;3.40;;;;;;;3.97;100.00;100698.75;5032847;28;20192;-70
2024/02/25 01:27:07;;;;;;;8.70;4.20;;;;;;;3.71;100.00;100666.94;5030989;28;20235;-70
2024/02/25 01:29:32;;;;;;;7.57;4.00;;;;;;;4.13;100.00;100724.50;5027511;28;20175;-70
2024/02/25 01:31:58;;;;;;;7.87;3.50;;;;;;;4.58;100.00;100844.72;5040701;28;20196;-71
2024/02/25 01:34:28;;;;;;;6.50;3.30;;;;;;;4.17;100.00;100757.72;5035027;28;20231;-70
2024/02/25 01:36:53;;;;;;;6.53;3.60;;;;;;;4.63;100.00;100813.16;5030344;28;20207;-70
2024/02/25 01:39:22;;;;;;;6.43;3.20;;;;;;;4.16;100.00;100779.09;5033621;28;20473;-70
2024/02/25 01:41:51;;;;;;;7.57;3.80;;;;;;;4.38;100.00;100830.84;5030883;28;20442;-71
2024/02/25 01:44:16;;;;;;;7.57;4.20;;;;;;;3.97;100.00;100766.91;5034157;28;20537;-71
2024/02/25 01:46:45;;;;;;;8.17;3.77;;;;;;;4.28;100.00;100821.16;5025497;28;20450;-70
2024/02/25 01:49:20;;;;;;;8.87;3.50;;;;;;;4.51;100.00;100847.16;5034572;28;20204;-70
2024/02/25 01:51:45;;;;;;;6.33;3.40;;;;;;;4.63;100.00;100876.91;5038015;28;20498;-71
2024/02/25 01:54:12;;;;;;;8.10;4.00;;;;;;;4.46;100.00;100822.91;5034750;28;20454;-70
2024/02/25 01:56:38;;;;;;;6.40;3.50;;;;;;;4.66;100.00;100842.09;5036693;28;20219;-71
2024/02/25 01:59:05;;;;;;;6.63;3.43;;;;;;;4.50;100.00;100870.22;5038216;28;20474;-70
2024/02/25 02:01:36;;;;;;;6.03;2.83;;;;;;;4.49;100.00;100834.03;5035461;28;20988;-71
2024/02/25 02:04:02;;;;;;;6.80;3.00;;;;;;;4.17;100.00;100756.91;5028368;28;20495;-70
2024/02/25 02:06:27;;;;;;;6.47;3.10;;;;;;;4.30;100.00;100816.50;5031519;28;20446;-70
2024/02/25 02:08:53;;;;;;;7.53;3.20;;;;;;;4.60;100.00;100843.56;5026285;28;20819;-70
2024/02/25 02:11:20;;;;;;;5.70;2.57;;;;;;;4.70;100.00;100862.84;5038282;28;20257;-69
2024/02/25 02:13:46;;;;;;;5.90;2.77;;;;;;;3.86;100.00;100775.97;5035616;28;25136;-70
2024/02/25 02:16:12;;;;;;;6.10;2.60;;;;;;;4.55;100.00;100877.72;5030372;28;20443;-70
2024/02/25 02:18:42;;;;;;;6.73;2.80;;;;;;;3.85;100.00;100780.44;5028335;28;20684;-70
2024/02/25 02:21:17;;;;;;;6.97;3.10;;;;;;;4.50;100.00;100864.91;5035830;28;20990;-71
2024/02/25 02:23:44;;;;;;;6.23;3.00;;;;;;;4.29;100.00;100806.06;5040100;28;20426;-71
2024/02/25 02:26:09;;;;;;;6.87;2.70;;;;;;;4.41;100.00;100806.63;5029071;28;20841;-69
2024/02/25 02:28:35;;;;;;;6.00;2.73;;;;;;;4.33;100.00;100836.59;5032083;28;21463;-70
2024/02/25 02:31:00;;;;;;;6.57;2.57;;;;;;;4.65;100.00;100878.44;5036937;28;20304;-70
2024/02/25 02:33:25;;;;;;;5.83;2.67;;;;;;;4.62;100.00;100892.03;5033289;28;20242;-70
2024/02/25 02:35:53;;;;;;;6.37;2.20;;;;;;;4.66;100.00;100879.28;5030531;28;20557;-70
2024/02/25 02:38:20;;;;;;;5.83;2.10;;;;;;;4.76;100.00;100890.59;5028232;28;20208;-69
2024/02/25 02:40:45;;;;;;;5.53;2.23;;;;;;;4.72;100.00;100878.66;5033789;28;20472;-70
2024/02/25 02:43:11;;;;;;;5.63;2.17;;;;;;;4.26;100.00;100815.19;5027087;28;20929;-69
2024/02/25 02:45:37;;;;;;;5.80;2.00;;;;;;;4.24;100.00;100793.25;5029360;28;20416;-70
2024/02/25 02:48:05;;;;;;;7.23;2.30;;;;;;;4.55;100.00;100876.91;5031653;28;20434;-70
2024/02/25 02:50:31;;;;;;;5.40;2.20;;;;;;;4.04;100.00;100768.75;5028983;28;20475;-70
2024/02/25 02:52:57;;;;;;;8.20;2.50;;;;;;;4.50;100.00;100859.59;5030851;28;20445;-70
2024/02/25 02:55:23;;;;;;;5.57;2.10;;;;;;;4.56;100.00;100833.41;5028342;28;20443;-70
2024/02/25 02:57:48;;;;;;;7.20;2.30;;;;;;;3.77;100.00;100768.94;5033712;28;20587;-70
2024/02/25 03:00:15;;;;;;;6.73;2.00;;;;;;;4.57;100.00;100848.34;5034427;28;20458;-70
2024/02/25 03:02:40;;;;;;;6.23;2.40;;;;;;;4.53;100.00;100835.38;5026670;28;20227;-70
2024/02/25 03:05:06;;;;;;;6.20;2.00;;;;;;;4.44;100.00;100822.22;5027984;28;20490;-70
2024/02/25 03:07:31;;;;;;;7.10;2.23;;;;;;;4.62;100.00;100822.97;5029955;28;20195;-70
2024/02/25 03:09:57;;;;;;;5.40;1.73;;;;;;;4.52;100.00;100830.25;5032607;28;20518;-70
2024/02/25 03:12:23;;;;;;;6.20;2.20;;;;;;;4.63;100.00;100824.66;5028988;28;20291;-70
2024/02/25 03:14:48;;;;;;;9.07;2.30;;;;;;;4.46;100.00;100818.44;5029642;28;20443;-70
2024/02/25 03:17:14;;;;;;;6.30;2.00;;;;;;;4.15;100.00;100749.06;5027711;28;20253;-70
2024/02/25 03:19:39;;;;;;;5.20;1.90;;;;;;;4.62;100.00;100838.91;5028926;28;20689;-70
2024/02/25 03:22:07;;;;;;;4.83;1.80;;;;;;;4.58;100.00;100842.06;5027151;28;20772;-69
2024/02/25 03:24:36;;;;;;;5.87;1.87;;;;;;;4.78;100.00;100826.69;5025326;28;20184;-70
2024/02/25 03:27:01;;;;;;;6.00;1.97;;;;;;;4.11;100.00;100750.41;5023500;28;20438;-70
2024/02/25 03:29:27;;;;;;;4.60;1.47;;;;;;;4.66;100.00;100808.38;5031081;28;20435;-70
2024/02/25 03:31:52;;;;;;;5.10;1.70;;;;;;;4.12;100.00;100741.44;5030252;28;20246;-70
2024/02/25 03:34:18;;;;;;;5.33;1.67;;;;;;;4.62;100.00;100809.69;5031007;28;20597;-70
2024/02/25 03:36:43;;;;;;;4.63;1.50;;;;;;;4.34;100.00;100774.56;5032354;28;20207;-69
2024/02/25 03:39:08;;;;;;;6.17;1.77;;;;;;;3.47;100.00;100634.97;5028200;28;20204;-71
2024/02/25 03:41:34;;;;;;;5.73;1.93;;;;;;;3.42;100.00;100587.75;5023990;28;20208;-70
2024/02/25 03:43:59;;;;;;;4.90;1.63;;;;;;;4.45;100.00;100746.88;5024971;28;20539;-72
2024/02/25 03:46:25;;;;;;;6.37;1.97;;;;;;;4.61;100.00;100740.78;5029861;28;20798;-70
2024/02/25 03:48:50;;;;;;;5.17;1.47;;;;;;;3.85;100.00;100596.53;5031808;28;20176;-70
2024/02/25 03:51:15;;;;;;;5.10;1.70;;;;;;;4.51;100.00;100685.13;5032464;28;20211;-70
2024/02/25 03:53:43;;;;;;;4.90;1.40;;;;;;;4.15;100.00;100674.75;5031572;28;20191;-71
2024/02/25 03:56:09;;;;;;;5.33;1.30;;;;;;;4.39;100.00;100650.06;5035925;28;20217;-70
2024/02/25 03:58:35;;;;;;;6.90;1.63;;;;;;;4.43;100.00;100655.91;5030254;28;20968;-70
2024/02/25 04:01:00;;;;;;;6.37;1.80;;;;;;;4.46;100.00;100660.91;5027416;28;20466;-70
2024/02/25 04:03:26;;;;;;;6.43;1.70;;;;;;;4.50;100.00;100623.19;5031020;28;20234;-70
2024/02/25 04:05:51;;;;;;;5.80;1.30;;;;;;;4.01;100.00;100535.53;5029795;28;20190;-70
2024/02/25 04:08:17;;;;;;;5.20;1.30;;;;;;;4.51;100.00;100627.53;5033024;28;20262;-70
2024/02/25 04:10:42;;;;;;;5.13;1.87;;;;;;;4.66;100.00;100625.06;5024979;28;23007;-70
2024/02/25 04:13:08;;;;;;;4.20;1.10;;;;;;;4.71;100.00;100617.41;5030788;28;20187;-70
2024/02/25 04:15:33;;;;;;;6.27;1.23;;;;;;;4.47;100.00;100620.06;5032551;28;20283;-70
2024/02/25 04:17:59;;;;;;;4.20;1.30;;;;;;;4.43;100.00;100593.00;5029479;28;20208;-70
2024/02/25 04:20:25;;;;;;;4.83;1.40;;;;;;;4.52;100.00;100612.44;5034933;28;20211;-70
2024/02/25 04:22:50;;;;;;;5.70;1.77;;;;;;;4.32;100.00;100569.41;5031178;28;20183;-70
2024/02/25 04:25:16;;;;;;;4.33;1.23;;;;;;;4.54;100.00;100578.53;5029925;28;20843;-69
2024/02/25 04:27:41;;;;;;;5.07;1.43;;;;;;;4.60;100.00;100585.03;5028803;28;20300;-70
2024/02/25 04:30:07;;;;;;;4.30;1.40;;;;;;;4.38;100.00;100565.28;5027586;28;20227;-70
2024/02/25 04:32:33;;;;;;;4.20;1.30;;;;;;;4.39;100.00;100569.59;5028885;28;20603;-70
2024/02/25 04:34:58;;;;;;;4.87;1.20;;;;;;;3.82;100.00;100464.19;5029017;28;20212;-69
2024/02/25 04:37:24;;;;;;;4.30;1.23;;;;;;;4.30;100.00;100536.88;5025608;28;20466;-70
2024/02/25 04:39:49;;;;;;;5.57;1.33;;;;;;;4.54;100.00;100538.69;5035201;28;20688;-70
2024/02/25 04:42:15;;;;;;;5.83;1.40;;;;;;;4.66;100.00;100561.31;5026770;28;20192;-70
2024/02/25 04:44:40;;;;;;;4.13;1.30;;;;;;;4.60;100.00;100566.44;5032296;28;20191;-70
2024/02/25 04:47:06;;;;;;;5.40;1.23;;;;;;;4.24;100.00;100535.72;5030327;28;20210;-70
2024/02/25 04:49:31;;;;;;;5.07;1.20;;;;;;;4.34;100.00;100517.00;5024537;28;20188;-70
2024/02/25 04:51:56;;;;;;;4.63;1.20;;;;;;;4.70;100.00;100570.56;5032007;28;20215;-69
2024/02/25 04:54:22;;;;;;;4.00;1.03;;;;;;;4.30;100.00;100547.50;5024029;28;20443;-69
2024/02/25 04:56:48;;;;;;;4.60;0.90;;;;;;;4.50;100.00;100534.72;5030754;28;20650;-70
2024/02/25 04:59:14;;;;;;;3.80;1.00;;;;;;;4.61;100.00;100582.22;5033455;28;20212;-70
2024/02/25 05:01:49;;;;;;;4.00;1.17;;;;;;;4.72;100.00;100575.75;5030814;28;20991;-70
2024/02/25 05:04:14;;;;;;;6.30;1.40;;;;;;;4.69;100.00;100576.91;5034908;28;20571;-70
2024/02/25 05:06:40;;;;;;;5.00;1.10;;;;;;;4.73;100.00;100580.06;5029435;28;20512;-69
2024/02/25 05:09:05;;;;;;;4.10;1.00;;;;;;;4.40;100.00;100528.78;5033720;28;20230;-70
2024/02/25 05:11:34;;;;;;;3.77;0.90;;;;;;;4.49;100.00;100575.56;5048364;28;20253;-70
2024/02/25 05:13:59;;;;;;;6.50;1.00;;;;;;;4.25;100.00;100510.84;5036907;28;20469;-70
2024/02/25 05:16:25;;;;;;;4.23;1.03;;;;;;;3.69;100.00;100397.53;5030713;28;20473;-70
2024/02/25 05:18:50;;;;;;;5.13;1.20;;;;;;;4.36;100.00;100511.50;5034687;28;20269;-69
2024/02/25 05:21:16;;;;;;;5.67;1.80;;;;;;;4.47;100.00;100543.03;5032308;28;20654;-70
2024/02/25 05:23:41;;;;;;;5.60;1.47;;;;;;;4.70;100.00;100572.41;5037281;28;20509;-69
2024/02/25 05:26:07;;;;;;;5.50;1.20;;;;;;;4.65;100.00;100561.44;5030925;28;20192;-70
2024/02/25 05:28:32;;;;;;;4.80;1.37;;;;;;;4.58;100.00;100558.63;5034306;28;20180;-70
2024/02/25 05:30:58;;;;;;;6.83;1.40;;;;;;;4.71;100.00;100588.16;5031447;28;20539;-69
2024/02/25 05:33:23;;;;;;;5.90;1.43;;;;;;;4.44;100.00;100533.56;5034067;28;20192;-70
2024/02/25 05:35:49;;;;;;;5.60;1.30;;;;;;;4.32;100.00;100488.94;5037689;28;20713;-70
2024/02/25 05:38:15;;;;;;;5.67;1.23;;;;;;;4.66;100.00;100544.53;5032434;28;20749;-70
2024/02/25 05:40:42;;;;;;;4.93;1.30;;;;;;;4.36;100.00;100469.84;5036284;28;20686;-70
2024/02/25 05:43:08;;;;;;;5.37;1.60;;;;;;;4.35;100.00;100467.34;5024767;28;20921;-69
2024/02/25 05:45:34;;;;;;;3.90;1.33;;;;;;;4.62;100.00;100522.75;5034809;28;20471;-70
2024/02/25 05:47:59;;;;;;;4.83;1.30;;;;;;;4.35;100.00;100505.38;5040656;28;20254;-70
2024/02/25 05:50:25;;;;;;;4.60;1.60;;;;;;;4.71;100.00;100520.91;5036070;28;20666;-70
2024/02/25 05:52:50;;;;;;;5.60;1.93;;;;;;;4.49;100.00;100517.16;5035524;28;20191;-70
2024/02/25 05:55:17;;;;;;;4.40;1.60;;;;;;;4.01;100.00;100431.19;5031017;28;20621;-70
2024/02/25 05:57:43;;;;;;;5.90;1.80;;;;;;;4.23;100.00;100435.84;5029766;28;20306;-70
2024/02/25 06:00:11;;;;;;;5.20;1.87;;;;;;;4.74;100.00;100507.31;5033541;28;20624;-70
2024/02/25 06:02:39;;;;;;;5.10;1.87;;;;;;;4.79;100.00;100488.22;5027252;28;20474;-70
2024/02/25 06:05:09;;;;;;;5.17;1.97;;;;;;;4.66;100.00;100481.59;5034268;28;20450;-70
2024/02/25 06:07:34;;;;;;;6.37;2.30;;;;;;;4.71;100.00;100481.06;5029098;28;20607;-69
2024/02/25 06:10:00;;;;;;;5.90;2.67;;;;;;;4.62;100.00;100451.03;5028881;28;20991;-69
2024/02/25 06:12:25;;;;;;;5.60;2.30;;;;;;;4.55;100.00;100435.97;5033380;28;20634;-70
2024/02/25 06:14:51;;;;;;;6.20;2.30;;;;;;;4.06;100.00;100355.38;5036370;28;20258;-70
2024/02/25 06:17:16;;;;;;;5.00;2.13;;;;;;;4.08;100.00;100366.69;5031769;28;20306;-71
2024/02/25 06:19:41;;;;;;;5.60;2.63;;;;;;;4.64;100.00;100437.59;5035931;28;20246;-70
2024/02/25 06:22:07;;;;;;;5.87;2.47;;;;;;;4.23;100.00;100361.50;5037416;28;20305;-70
2024/02/25 06:24:32;;;;;;;5.30;2.60;;;;;;;4.53;100.00;100404.25;5039742;28;20191;-70
2024/02/25 06:26:58;;;;;;;6.03;2.67;;;;;;;4.67;100.00;100467.31;5036436;28;20677;-70
2024/02/25 06:29:24;;;;;;;6.17;2.57;;;;;;;4.44;100.00;100439.78;5033571;28;20184;-70
2024/02/25 06:31:50;;;;;;;6.40;3.10;;;;;;;4.01;100.00;100365.66;5042869;28;20191;-70
2024/02/25 06:34:15;;;;;;;5.53;2.67;;;;;;;4.72;100.00;100469.47;5040197;28;20461;-70
2024/02/25 06:36:41;;;;;;;9.07;3.13;;;;;;;4.15;100.00;100368.66;5038983;28;20687;-70
2024/02/25 06:39:08;;;;;;;6.27;2.70;;;;;;;4.23;100.00;100401.31;5037374;28;20953;-70
2024/02/25 06:41:33;;;;;;;6.67;2.90;;;;;;;4.53;100.00;100423.66;5039888;28;20679;-73
2024/02/25 06:43:59;;;;;;;6.40;2.90;;;;;;;3.87;100.00;100328.38;5032318;28;20446;-72
2024/02/25 06:46:25;;;;;;;6.53;3.10;;;;;;;4.25;100.00;100388.72;5035191;28;20244;-70
2024/02/25 06:48:51;;;;;;;5.47;2.50;;;;;;;4.85;100.00;100440.50;5033826;28;20435;-70
2024/02/25 06:51:20;;;;;;;6.70;3.00;;;;;;;4.73;100.00;100431.25;5036887;28;20524;-70
2024/02/25 06:53:46;;;;;;;5.83;2.97;;;;;;;4.91;100.00;100431.03;5028464;28;20203;-70
2024/02/25 06:56:11;;;;;;;6.60;3.23;;;;;;;4.66;100.00;100380.66;5035629;28;20438;-70
2024/02/25 06:58:37;;;;;;;7.10;3.03;;;;;;;4.76;100.00;100428.25;5030585;28;20211;-70
2024/02/25 07:01:02;;;;;;;8.30;3.20;;;;;;;4.74;100.00;100431.09;5031912;28;20692;-70
2024/02/25 07:03:30;;;;;;;6.90;3.10;;;;;;;3.94;100.00;100290.41;5031992;28;20198;-70
2024/02/25 07:05:55;;;;;;;6.03;2.93;;;;;;;4.81;100.00;100439.22;5031110;28;20220;-70
2024/02/25 07:08:21;;;;;;;10.83;3.40;;;;;;;4.20;100.00;100305.28;5032036;28;20469;-70
2024/02/25 07:10:46;;;;;;;7.30;2.97;;;;;;;4.78;100.00;100426.25;5027750;28;20214;-70
2024/02/25 07:13:11;;;;;;;8.97;2.77;;;;;;;4.77;100.00;100419.28;5029134;28;20603;-70
2024/02/25 07:15:37;;;;;;;5.47;2.50;;;;;;;4.87;100.00;100429.72;5029449;28;20233;-70
2024/02/25 07:18:02;;;;;;;7.73;2.87;;;;;;;4.80;100.00;100415.44;5029354;28;20223;-70
2024/02/25 07:20:28;;;;;;;5.70;2.97;;;;;;;4.57;100.00;100378.16;5031363;28;20634;-70
2024/02/25 07:22:53;;;;;;;5.47;2.87;;;;;;;4.16;100.00;100310.06;5027520;28;20188;-70
2024/02/25 07:25:18;;;;;;;6.07;3.00;;;;;;;4.42;100.00;100348.84;5029815;28;20251;-71
2024/02/25 07:27:44;;;;;;;5.90;3.13;;;;;;;4.48;100.00;100385.34;5032572;28;20665;-71
2024/02/25 07:30:10;;;;;;;6.30;3.00;;;;;;;4.69;100.00;100425.47;5028891;28;20462;-72
2024/02/25 07:32:35;;;;;;;6.80;3.33;;;;;;;4.22;100.00;100346.59;5037063;28;20290;-72
2024/02/25 07:35:03;;;;;;;6.23;2.90;;;;;;;3.90;100.00;100291.72;5033837;28;20203;-72
2024/02/25 07:37:29;;;;;;;8.03;3.63;;;;;;;4.72;100.00;100440.25;5028145;28;21554;-72
2024/02/25 07:39:54;;;;;;;6.63;3.40;;;;;;;4.37;100.00;100370.59;5040914;28;20459;-71
2024/02/25 07:42:20;;;;;;;6.33;3.00;;;;;;;4.85;100.00;100429.06;5024951;28;20187;-70
2024/02/25 07:44:45;;;;;;;7.00;3.50;;;;;;;4.88;100.00;100421.56;5026429;28;20175;-70
2024/02/25 07:47:10;;;;;;;6.43;2.97;;;;;;;3.97;100.00;100270.66;5030337;28;20610;-70
2024/02/25 07:49:36;;;;;;;5.90;2.90;;;;;;;4.17;100.00;100305.63;5033543;28;20612;-70
2024/02/25 07:52:01;;;;;;;6.53;3.47;;;;;;;3.98;100.00;100261.69;5032630;28;20175;-70
2024/02/25 07:54:27;;;;;;;5.43;2.53;;;;;;;4.79;100.00;100424.44;5034142;28;20279;-70
2024/02/25 07:56:52;;;;;;;5.40;3.07;;;;;;;4.87;100.00;100414.59;5035054;28;20237;-70
2024/02/25 07:59:18;;;;;;;6.13;2.97;;;;;;;4.82;100.00;100411.63;5036528;28;20208;-70
2024/02/25 08:01:43;;;;;;;9.40;3.27;;;;;;;5.00;100.00;100414.03;5032894;28;21605;-69
2024/02/25 08:04:08;;;;;;;6.20;2.97;;;;;;;4.49;100.00;100350.66;5035906;28;20185;-70
2024/02/25 08:06:35;;;;;;;5.73;2.77;;;;;;;4.84;100.00;100371.59;5032512;28;20199;-70
2024/02/25 08:09:00;;;;;;;6.87;2.77;;;;;;;4.69;100.00;100368.84;5035596;28;20172;-69
2024/02/25 08:11:26;;;;;;;6.20;2.53;;;;;;;4.82;100.00;100398.34;5029408;28;22535;-70
2024/02/25 08:13:51;;;;;;;6.73;2.67;;;;;;;4.42;100.00;100269.16;5033399;28;20216;-70
2024/02/25 08:16:17;;;;;;;5.77;2.80;;;;;;;4.92;100.00;100352.97;5037597;28;20180;-73
2024/02/25 08:18:48;;;;;;;6.03;2.60;;;;;;;4.73;100.00;100307.22;5036322;28;20584;-70
2024/02/25 08:21:14;;;;;;;5.68;2.60;;;;;;;4.81;100.00;100358.66;5032990;28;20939;-70
2024/02/25 08:23:40;;;;;;;5.67;2.60;;;;;;;4.99;100.00;100361.91;5037781;28;20709;-70
2024/02/25 08:26:09;;;;;;;5.43;2.40;;;;;;;4.78;100.00;100335.94;5038498;28;20431;-70
2024/02/25 08:28:36;;;;;;;6.63;2.57;;;;;;;4.89;100.00;100371.91;5030306;28;20171;-70
2024/02/25 08:31:01;;;;;;;5.33;2.37;;;;;;;4.51;100.00;100287.56;5031798;28;21071;-72
2024/02/25 08:33:27;;;;;;;5.73;2.70;;;;;;;5.02;100.00;100374.84;5034555;28;20434;-70
2024/02/25 08:35:53;;;;;;;5.10;1.90;;;;;;;4.54;100.00;100278.41;5031752;28;20274;-70
2024/02/25 08:38:18;;;;;;;5.70;2.80;;;;;;;4.66;100.00;100277.03;5032250;28;20477;-69
2024/02/25 08:40:43;;;;;;;5.23;2.60;;;;;;;4.67;100.00;100293.78;5032203;28;20253;-70
2024/02/25 08:43:09;;;;;;;5.73;2.70;;;;;;;4.74;100.00;100335.44;5035644;28;20184;-70
2024/02/25 08:45:35;;;;;;;6.63;2.93;;;;;;;4.90;100.00;100384.19;5031196;28;20211;-72
2024/02/25 08:48:01;;;;;;;5.57;3.00;;;;;;;4.58;100.00;100335.50;5028533;28;20646;-72
2024/02/25 08:50:27;;;;;;;6.70;2.70;;;;;;;4.79;100.00;100326.94;5015493;28;20455;-72
2024/02/25 08:52:53;;;;;;;7.87;2.70;;;;;;;4.80;100.00;100341.88;5031123;28;20561;-72
2024/02/25 08:55:19;;;;;;;5.80;2.80;;;;;;;5.11;100.00;100395.06;5028784;28;20434;-72
2024/02/25 08:57:44;;;;;;;6.67;2.77;;;;;;;5.02;100.00;100396.09;5030878;28;21482;-72
2024/02/25 09:00:10;;;;;;;5.40;2.70;;;;;;;4.76;100.00;100344.06;5038059;28;20219;-72
2024/02/25 09:02:36;;;;;;;5.50;2.37;;;;;;;5.19;100.00;100384.38;5024481;28;20194;-74
2024/02/25 09:05:02;;;;;;;9.90;4.87;;;;;;;5.19;100.00;100378.25;5029097;28;20930;-73
2024/02/25 09:07:29;;;;;;;5.63;2.70;;;;;;;4.83;100.00;100324.75;5026664;28;20176;-73
2024/02/25 09:09:55;;;;;;;5.23;2.77;;;;;;;5.34;100.00;100362.34;5032724;28;20196;-71
2024/02/25 09:12:20;;;;;;;5.80;2.30;;;;;;;4.75;100.00;100315.84;5031763;28;20879;-72
2024/02/25 09:14:47;;;;;;;5.93;2.60;;;;;;;4.80;100.00;100307.34;5034438;28;20691;-73
2024/02/25 09:17:12;;;;;;;5.57;2.37;;;;;;;4.78;100.00;100313.84;5031593;28;20180;-73
2024/02/25 09:19:38;;;;;;;6.27;2.60;;;;;;;4.96;100.00;100356.94;5034846;28;20826;-75
2024/02/25 09:22:03;;;;;;;5.73;2.80;;;;;;;5.02;100.00;100352.75;5031999;28;20192;-73
2024/02/25 09:24:29;;;;;;;6.17;2.90;;;;;;;5.24;100.00;100373.22;5033973;28;20180;-74
2024/02/25 09:26:54;;;;;;;6.67;3.03;;;;;;;5.13;100.00;100357.69;5031548;28;20177;-71
2024/02/25 09:29:23;;;;;;;6.13;3.23;;;;;;;5.19;100.00;100349.00;5030896;28;20583;-71
2024/02/25 09:31:49;;;;;;;5.77;2.40;;;;;;;4.99;100.00;100325.50;5033859;28;20200;-70
2024/02/25 09:34:14;;;;;;;4.80;2.37;;;;;;;4.85;100.00;100296.19;5030237;28;20993;-71
2024/02/25 09:36:41;;;;;;;6.03;2.83;;;;;;;5.39;100.00;100378.63;5042283;28;20435;-71
2024/02/25 09:39:07;;;;;;;5.17;2.50;;;;;;;4.79;100.00;100288.91;5032157;28;20573;-71
2024/02/25 09:41:39;;;;;;;7.97;3.13;;;;;;;5.26;100.00;100363.22;5038071;28;20450;-70
2024/02/25 09:44:12;;;;;;;5.60;2.53;;;;;;;5.30;100.00;100337.13;5032779;28;20180;-71
2024/02/25 09:46:38;;;;;;;5.40;2.60;;;;;;;5.40;100.00;100338.53;5029252;28;20517;-72
2024/02/25 09:49:06;;;;;;;6.53;2.80;;;;;;;5.46;100.00;100328.19;5036107;28;20429;-71
2024/02/25 09:51:33;;;;;;;6.43;3.07;;;;;;;5.28;100.00;100284.09;5023745;28;20459;-72
2024/02/25 09:54:00;;;;;;;9.63;3.40;;;;;;;4.71;100.00;100221.53;5040046;28;20440;-72
2024/02/25 09:56:25;;;;;;;9.27;3.57;;;;;;;5.42;100.00;100333.88;5034701;28;21078;-71
2024/02/25 09:58:51;;;;;;;6.03;2.63;;;;;;;5.50;100.00;100364.91;5034627;28;20470;-72
2024/02/25 10:01:16;;;;;;;6.03;3.00;;;;;;;5.36;100.00;100366.50;5036890;28;20212;-73
2024/02/25 10:03:42;;;;;;;7.30;3.00;;;;;;;5.35;100.00;100391.44;5039611;28;20288;-73
2024/02/25 10:06:08;;;;;;;7.23;3.27;;;;;;;5.52;100.00;100388.66;5033451;28;20188;-72
2024/02/25 10:08:51;;;;;;;10.27;3.33;;;;;;;5.43;100.00;100351.47;5033202;28;20845;-72
2024/02/25 10:11:17;;;;;;;6.10;3.30;;;;;;;5.04;100.00;100261.19;5033781;28;20505;-70
2024/02/25 10:13:45;;;;;;;6.83;3.30;;;;;;;5.73;100.00;100321.47;5028934;28;20461;-71
2024/02/25 10:16:20;;;;;;;6.90;2.90;;;;;;;5.68;100.00;100307.91;5034231;28;20449;-73
2024/02/25 10:18:49;;;;;;;5.50;3.20;;;;;;;5.46;100.00;100265.19;5019651;28;20500;-72
2024/02/25 10:21:15;;;;;;;6.20;3.43;;;;;;;5.71;100.00;100324.34;5030757;28;20523;-72
2024/02/25 10:23:41;;;;;;;6.97;3.60;;;;;;;5.79;100.00;100326.13;5039126;28;20430;-72
2024/02/25 10:26:15;;;;;;;5.70;3.10;;;;;;;5.56;100.00;100318.16;5033095;28;20207;-72
2024/02/25 10:28:41;;;;;;;7.20;3.80;;;;;;;5.56;100.00;100295.03;5037857;28;20602;-72
2024/02/25 10:31:10;;;;;;;6.70;3.67;;;;;;;5.36;100.00;100297.34;5036363;28;20515;-72
2024/02/25 10:33:36;;;;;;;8.53;3.67;;;;;;;5.59;100.00;100342.56;5038038;28;20922;-72
2024/02/25 10:36:19;;;;;;;6.83;4.00;;;;;;;5.80;100.00;100381.81;5035627;28;20462;-71
2024/02/25 10:38:46;;;;;;;5.90;3.53;;;;;;;5.25;100.00;100291.63;5038586;28;20474;-72
2024/02/25 10:41:13;;;;;;;8.33;4.70;;;;;;;5.83;100.00;100393.94;5023316;28;20469;-71
2024/02/25 10:43:39;;;;;;;7.03;4.80;;;;;;;5.34;100.00;100291.38;5032939;28;20759;-70
2024/02/25 10:46:14;;;;;;;7.73;4.90;;;;;;;5.96;100.00;100394.19;5029960;28;20952;-69
2024/02/25 10:48:41;;;;;;;6.77;4.10;;;;;;;5.71;100.00;100347.47;5033275;28;20432;-70
2024/02/25 10:51:09;;;;;;;7.00;4.30;;;;;;;6.11;100.00;100381.75;5025603;28;20462;-71
2024/02/25 10:53:37;;;;;;;7.37;4.57;;;;;;;5.72;100.00;100322.50;5027601;28;20443;-70
2024/02/25 10:56:04;;;;;;;6.23;3.77;;;;;;;5.77;100.00;100322.78;5034779;28;20450;-70
2024/02/25 10:58:31;;;;;;;7.03;4.23;;;;;;;4.29;100.00;100081.22;5064889;23;20509;-78
2024/02/25 11:00:58;;;;;;;6.70;4.13;;;;;;;4.45;100.00;100090.91;5086064;28;20928;-77
2024/02/25 11:03:24;;;;;;;6.93;4.30;;;;;;;4.83;100.00;100130.78;5068295;28;20881;-77
2024/02/25 11:05:53;;;;;;;5.77;3.50;;;;;;;2.93;100.00;99805.97;5065522;28;20497;-77
2024/02/25 11:08:42;;;;;;;7.63;4.07;;;;;;;3.67;100.00;99930.88;5077659;28;20494;-76
2024/02/25 11:11:09;;;;;;;6.87;4.10;;;;;;;3.43;100.00;99937.16;5083937;28;20424;-76
2024/02/25 11:13:40;;;;;;;6.50;3.83;;;;;;;4.89;100.00;100167.28;5082568;28;20459;-78
2024/02/25 11:16:06;;;;;;;6.70;4.10;;;;;;;3.95;100.00;100057.72;5085923;28;21235;-77
2024/02/25 11:18:31;;;;;;;7.40;4.10;;;;;;;5.54;100.00;100323.63;5058274;28;20501;-77
2024/02/25 11:21:04;;;;;;;7.90;4.40;;;;;;;5.22;100.00;100253.75;5087077;28;20615;-77